Briar Park, New York
Current Conditions -  °F | °C
As of 10:53 AM on Thursday 30 Oct 2014 (Local Time) from KFRG Reporting Station
Broken Clouds Broken Clouds  
Wind Chill: 56°   Ceiling: 6000
Heat Index: 56°   Visibility: 10mi
Dew Point: 44°   Wind: 7mph
Humidity: 64%   Direction: 340°NNW
Pressure: 29.99"   Gusts: NA
Location:  40.681°N, 73.5104°W
Report Text: KFRG 301453Z 34006KT 10SM BKN060 13/07 A2999 RMK AO2 SLP156 T01330067 51005
Loading
Personal Weather Stations






























Interactive Weather Map
Tropical Storm Tracking
New forecast layout! Learn more

10-Day Weather Forecast

Advertisements
Track Severe Weather on mobile